sensor_id;sensor_type;location;lat;lon;timestamp;pressure;altitude;pressure_sealevel;temperature;humidity
64551;BME280;50945;44.472;-123.352;2022-08-06T00:00:34;100089.78;;;30.51;28.95
64551;BME280;50945;44.472;-123.352;2022-08-06T00:03:01;100085.81;;;30.61;28.96
64551;BME280;50945;44.472;-123.352;2022-08-06T00:05:29;100083.84;;;30.61;28.97
64551;BME280;50945;44.472;-123.352;2022-08-06T00:07:55;100086.69;;;30.61;29.10
64551;BME280;50945;44.472;-123.352;2022-08-06T00:10:25;100083.50;;;30.54;29.08
64551;BME280;50945;44.472;-123.352;2022-08-06T00:12:51;100087.13;;;30.55;29.05
64551;BME280;50945;44.472;-123.352;2022-08-06T00:15:18;100082.50;;;30.59;28.71
64551;BME280;50945;44.472;-123.352;2022-08-06T00:17:45;100081.63;;;30.18;29.36
64551;BME280;50945;44.472;-123.352;2022-08-06T00:20:13;100078.50;;;29.97;29.03
64551;BME280;50945;44.472;-123.352;2022-08-06T00:22:40;100080.25;;;29.84;29.41
64551;BME280;50945;44.472;-123.352;2022-08-06T00:25:07;100068.91;;;29.75;29.42
64551;BME280;50945;44.472;-123.352;2022-08-06T00:27:34;100075.19;;;29.72;29.58
64551;BME280;50945;44.472;-123.352;2022-08-06T00:30:00;100071.78;;;29.62;29.85
64551;BME280;50945;44.472;-123.352;2022-08-06T00:32:27;100059.72;;;29.47;29.67
64551;BME280;50945;44.472;-123.352;2022-08-06T00:34:53;100061.03;;;29.41;29.94
64551;BME280;50945;44.472;-123.352;2022-08-06T00:37:19;100063.94;;;29.36;30.04
64551;BME280;50945;44.472;-123.352;2022-08-06T00:39:45;100066.06;;;29.30;29.89
64551;BME280;50945;44.472;-123.352;2022-08-06T00:42:12;100066.59;;;29.18;30.23
64551;BME280;50945;44.472;-123.352;2022-08-06T00:44:38;100062.97;;;29.04;30.61
64551;BME280;50945;44.472;-123.352;2022-08-06T00:47:05;100064.47;;;28.88;31.56
64551;BME280;50945;44.472;-123.352;2022-08-06T00:49:31;100067.69;;;28.67;32.06
64551;BME280;50945;44.472;-123.352;2022-08-06T00:51:57;100070.50;;;28.53;32.63
64551;BME280;50945;44.472;-123.352;2022-08-06T00:54:24;100064.00;;;28.39;32.99
64551;BME280;50945;44.472;-123.352;2022-08-06T00:56:50;100074.72;;;28.23;33.76
64551;BME280;50945;44.472;-123.352;2022-08-06T00:59:16;100055.44;;;28.02;34.14
64551;BME280;50945;44.472;-123.352;2022-08-06T01:01:43;100072.31;;;27.83;34.68
64551;BME280;50945;44.472;-123.352;2022-08-06T01:04:09;100074.63;;;27.62;35.15
64551;BME280;50945;44.472;-123.352;2022-08-06T01:06:38;100075.63;;;27.53;35.38
64551;BME280;50945;44.472;-123.352;2022-08-06T01:09:04;100071.00;;;27.43;35.75
64551;BME280;50945;44.472;-123.352;2022-08-06T01:11:30;100078.44;;;27.34;36.02
64551;BME280;50945;44.472;-123.352;2022-08-06T01:13:57;100078.34;;;27.20;36.02
64551;BME280;50945;44.472;-123.352;2022-08-06T01:16:38;100083.56;;;27.07;36.61
64551;BME280;50945;44.472;-123.352;2022-08-06T01:27:58;100079.75;;;26.79;37.53
64551;BME280;50945;44.472;-123.352;2022-08-06T01:30:30;100078.97;;;26.73;37.48
64551;BME280;50945;44.472;-123.352;2022-08-06T01:33:12;100084.63;;;26.68;38.04
64551;BME280;50945;44.472;-123.352;2022-08-06T01:35:49;100090.88;;;26.60;38.01
64551;BME280;50945;44.472;-123.352;2022-08-06T01:38:25;100078.72;;;26.46;38.61
64551;BME280;50945;44.472;-123.352;2022-08-06T01:40:53;100087.22;;;26.35;38.52
64551;BME280;50945;44.472;-123.352;2022-08-06T01:43:21;100090.38;;;26.29;38.69
64551;BME280;50945;44.472;-123.352;2022-08-06T01:45:49;100082.03;;;26.24;38.91
64551;BME280;50945;44.472;-123.352;2022-08-06T01:48:22;100087.75;;;26.13;38.85
64551;BME280;50945;44.472;-123.352;2022-08-06T01:50:54;100084.72;;;26.10;39.10
64551;BME280;50945;44.472;-123.352;2022-08-06T01:53:32;100086.69;;;26.04;39.71
64551;BME280;50945;44.472;-123.352;2022-08-06T01:56:01;100087.06;;;25.97;39.61
64551;BME280;50945;44.472;-123.352;2022-08-06T01:58:36;100092.44;;;25.89;39.68
64551;BME280;50945;44.472;-123.352;2022-08-06T02:01:08;100093.03;;;25.80;39.75
64551;BME280;50945;44.472;-123.352;2022-08-06T02:03:52;100089.22;;;25.71;39.92
64551;BME280;50945;44.472;-123.352;2022-08-06T02:06:22;100084.75;;;25.65;39.89
64551;BME280;50945;44.472;-123.352;2022-08-06T02:08:52;100096.88;;;25.55;40.13
64551;BME280;50945;44.472;-123.352;2022-08-06T02:11:20;100095.22;;;25.49;40.44
64551;BME280;50945;44.472;-123.352;2022-08-06T02:13:48;100093.03;;;25.46;40.85
64551;BME280;50945;44.472;-123.352;2022-08-06T02:16:17;100090.56;;;25.39;40.65
64551;BME280;50945;44.472;-123.352;2022-08-06T02:18:46;100096.19;;;25.34;40.80
64551;BME280;50945;44.472;-123.352;2022-08-06T02:21:18;100094.56;;;25.23;40.88
64551;BME280;50945;44.472;-123.352;2022-08-06T02:23:46;100103.25;;;25.16;41.13
64551;BME280;50945;44.472;-123.352;2022-08-06T02:26:15;100103.56;;;25.10;41.04
64551;BME280;50945;44.472;-123.352;2022-08-06T02:28:43;100095.19;;;25.04;41.28
64551;BME280;50945;44.472;-123.352;2022-08-06T02:31:12;100107.00;;;24.96;41.38
64551;BME280;50945;44.472;-123.352;2022-08-06T02:33:38;100105.69;;;24.78;42.40
64551;BME280;50945;44.472;-123.352;2022-08-06T02:36:14;100110.44;;;24.67;42.15
64551;BME280;50945;44.472;-123.352;2022-08-06T02:43:54;100110.81;;;24.30;43.22
64551;BME280;50945;44.472;-123.352;2022-08-06T02:46:40;100121.16;;;24.14;43.23
64551;BME280;50945;44.472;-123.352;2022-08-06T02:49:36;100113.91;;;24.03;43.34
64551;BME280;50945;44.472;-123.352;2022-08-06T02:52:09;100119.78;;;23.96;43.16
64551;BME280;50945;44.472;-123.352;2022-08-06T02:55:01;100129.00;;;23.86;43.98
64551;BME280;50945;44.472;-123.352;2022-08-06T02:57:36;100131.75;;;23.76;43.41
64551;BME280;50945;44.472;-123.352;2022-08-06T03:00:07;100134.25;;;23.67;43.54
64551;BME280;50945;44.472;-123.352;2022-08-06T03:02:37;100132.03;;;23.54;43.67
64551;BME280;50945;44.472;-123.352;2022-08-06T03:05:09;100132.81;;;23.44;43.77
64551;BME280;50945;44.472;-123.352;2022-08-06T03:07:39;100140.88;;;23.35;43.78
64551;BME280;50945;44.472;-123.352;2022-08-06T03:10:07;100133.34;;;23.26;44.17
64551;BME280;50945;44.472;-123.352;2022-08-06T03:12:35;100148.09;;;23.16;44.37
64551;BME280;50945;44.472;-123.352;2022-08-06T03:15:04;100153.63;;;23.06;44.39
64551;BME280;50945;44.472;-123.352;2022-08-06T03:17:33;100148.00;;;22.95;44.47
64551;BME280;50945;44.472;-123.352;2022-08-06T03:20:02;100154.34;;;22.86;44.83
64551;BME280;50945;44.472;-123.352;2022-08-06T03:22:30;100156.78;;;22.72;44.86
64551;BME280;50945;44.472;-123.352;2022-08-06T03:24:59;100150.03;;;22.63;44.97
64551;BME280;50945;44.472;-123.352;2022-08-06T03:27:27;100160.56;;;22.50;45.26
64551;BME280;50945;44.472;-123.352;2022-08-06T03:29:55;100157.44;;;22.42;45.24
64551;BME280;50945;44.472;-123.352;2022-08-06T03:32:22;100153.75;;;22.31;45.45
64551;BME280;50945;44.472;-123.352;2022-08-06T03:34:49;100157.78;;;22.18;45.73
64551;BME280;50945;44.472;-123.352;2022-08-06T03:37:20;100156.63;;;22.09;45.56
64551;BME280;50945;44.472;-123.352;2022-08-06T03:39:48;100161.81;;;22.00;46.09
64551;BME280;50945;44.472;-123.352;2022-08-06T03:42:16;100161.22;;;21.93;46.01
64551;BME280;50945;44.472;-123.352;2022-08-06T03:44:42;100164.47;;;21.84;46.06
64551;BME280;50945;44.472;-123.352;2022-08-06T03:47:24;100177.19;;;21.75;46.82
64551;BME280;50945;44.472;-123.352;2022-08-06T03:50:02;100166.53;;;21.67;46.27
64551;BME280;50945;44.472;-123.352;2022-08-06T03:52:33;100173.16;;;21.61;46.66
64551;BME280;50945;44.472;-123.352;2022-08-06T03:55:04;100175.88;;;21.56;46.81
64551;BME280;50945;44.472;-123.352;2022-08-06T03:57:38;100182.81;;;21.53;46.85
64551;BME280;50945;44.472;-123.352;2022-08-06T04:00:08;100176.06;;;21.49;46.91
64551;BME280;50945;44.472;-123.352;2022-08-06T04:02:39;100185.53;;;21.48;47.17
64551;BME280;50945;44.472;-123.352;2022-08-06T04:05:07;100186.88;;;21.45;47.11
64551;BME280;50945;44.472;-123.352;2022-08-06T04:07:36;100197.91;;;21.40;47.51
64551;BME280;50945;44.472;-123.352;2022-08-06T04:10:03;100198.97;;;21.34;47.39
64551;BME280;50945;44.472;-123.352;2022-08-06T04:12:31;100199.72;;;21.30;47.64
64551;BME280;50945;44.472;-123.352;2022-08-06T04:15:01;100203.31;;;21.25;47.93
64551;BME280;50945;44.472;-123.352;2022-08-06T04:17:29;100206.53;;;21.17;47.89
64551;BME280;50945;44.472;-123.352;2022-08-06T04:19:57;100207.84;;;21.09;48.37
64551;BME280;50945;44.472;-123.352;2022-08-06T04:22:24;100211.88;;;21.01;48.34
64551;BME280;50945;44.472;-123.352;2022-08-06T04:24:50;100219.78;;;20.87;48.96
64551;BME280;50945;44.472;-123.352;2022-08-06T04:27:16;100218.97;;;20.70;52.05
64551;BME280;50945;44.472;-123.352;2022-08-06T04:29:48;100217.44;;;20.62;49.23
64551;BME280;50945;44.472;-123.352;2022-08-06T04:32:16;100226.19;;;20.54;49.26
64551;BME280;50945;44.472;-123.352;2022-08-06T04:34:44;100220.47;;;20.44;49.54
64551;BME280;50945;44.472;-123.352;2022-08-06T04:37:12;100218.88;;;20.31;49.98
64551;BME280;50945;44.472;-123.352;2022-08-06T04:39:39;100225.44;;;20.25;50.08
64551;BME280;50945;44.472;-123.352;2022-08-06T04:42:07;100225.69;;;20.23;50.15
64551;BME280;50945;44.472;-123.352;2022-08-06T04:44:35;100225.09;;;20.21;50.19
64551;BME280;50945;44.472;-123.352;2022-08-06T04:47:02;100234.78;;;20.19;50.52
64551;BME280;50945;44.472;-123.352;2022-08-06T04:49:30;100235.28;;;20.16;50.57
64551;BME280;50945;44.472;-123.352;2022-08-06T04:51:59;100240.50;;;20.12;50.44
64551;BME280;50945;44.472;-123.352;2022-08-06T04:54:25;100241.22;;;20.07;50.78
64551;BME280;50945;44.472;-123.352;2022-08-06T04:56:52;100236.44;;;20.03;50.81
64551;BME280;50945;44.472;-123.352;2022-08-06T04:59:18;100239.88;;;19.93;53.48
64551;BME280;50945;44.472;-123.352;2022-08-06T05:01:44;100246.28;;;19.93;50.47
64551;BME280;50945;44.472;-123.352;2022-08-06T05:04:11;100254.50;;;19.88;50.93
64551;BME280;50945;44.472;-123.352;2022-08-06T05:06:59;100248.59;;;19.85;50.95
64551;BME280;50945;44.472;-123.352;2022-08-06T05:09:28;100249.09;;;19.82;50.60
64551;BME280;50945;44.472;-123.352;2022-08-06T05:12:02;100249.34;;;19.80;50.70
64551;BME280;50945;44.472;-123.352;2022-08-06T05:14:36;100262.88;;;19.77;50.97
64551;BME280;50945;44.472;-123.352;2022-08-06T05:17:07;100251.63;;;19.71;50.83
64551;BME280;50945;44.472;-123.352;2022-08-06T05:19:48;100254.31;;;19.66;51.08
64551;BME280;50945;44.472;-123.352;2022-08-06T05:22:18;100248.41;;;19.63;50.99
64551;BME280;50945;44.472;-123.352;2022-08-06T05:24:46;100254.72;;;19.58;51.14
64551;BME280;50945;44.472;-123.352;2022-08-06T05:27:14;100257.16;;;19.54;51.09
64551;BME280;50945;44.472;-123.352;2022-08-06T05:29:41;100252.34;;;19.50;51.21
64551;BME280;50945;44.472;-123.352;2022-08-06T05:32:08;100252.81;;;19.47;51.53
64551;BME280;50945;44.472;-123.352;2022-08-06T05:34:35;100251.16;;;19.46;51.63
64551;BME280;50945;44.472;-123.352;2022-08-06T05:37:01;100258.00;;;19.43;51.80
64551;BME280;50945;44.472;-123.352;2022-08-06T05:39:27;100253.22;;;19.38;51.84
64551;BME280;50945;44.472;-123.352;2022-08-06T05:41:53;100268.78;;;19.28;53.85
64551;BME280;50945;44.472;-123.352;2022-08-06T05:44:20;100265.69;;;19.24;51.79
64551;BME280;50945;44.472;-123.352;2022-08-06T05:46:49;100275.41;;;19.15;53.45
64551;BME280;50945;44.472;-123.352;2022-08-06T05:49:22;100273.41;;;19.10;52.34
64551;BME280;50945;44.472;-123.352;2022-08-06T05:57:26;100292.44;;;18.95;53.35
64551;BME280;50945;44.472;-123.352;2022-08-06T05:59:58;100294.25;;;18.89;52.85
64551;BME280;50945;44.472;-123.352;2022-08-06T06:02:27;100291.81;;;18.81;52.87
64551;BME280;50945;44.472;-123.352;2022-08-06T06:04:54;100291.69;;;18.76;53.19
64551;BME280;50945;44.472;-123.352;2022-08-06T06:07:21;100290.47;;;18.72;53.31
64551;BME280;50945;44.472;-123.352;2022-08-06T06:09:48;100289.06;;;18.69;53.43
64551;BME280;50945;44.472;-123.352;2022-08-06T06:12:15;100292.06;;;18.68;53.71
64551;BME280;50945;44.472;-123.352;2022-08-06T06:14:44;100295.06;;;18.66;53.79
64551;BME280;50945;44.472;-123.352;2022-08-06T06:25:50;100304.69;;;18.52;54.40
64551;BME280;50945;44.472;-123.352;2022-08-06T06:28:24;100305.16;;;18.49;54.00
64551;BME280;50945;44.472;-123.352;2022-08-06T06:31:23;100298.41;;;18.45;55.13
64551;BME280;50945;44.472;-123.352;2022-08-06T06:36:51;100301.28;;;18.38;58.32
64551;BME280;50945;44.472;-123.352;2022-08-06T06:42:03;100315.56;;;18.35;54.41
64551;BME280;50945;44.472;-123.352;2022-08-06T06:44:41;100313.53;;;18.30;55.02
64551;BME280;50945;44.472;-123.352;2022-08-06T06:49:55;100315.19;;;18.19;55.01
64551;BME280;50945;44.472;-123.352;2022-08-06T06:52:28;100320.22;;;18.11;55.72
64551;BME280;50945;44.472;-123.352;2022-08-06T06:55:18;100318.38;;;18.04;55.85
64551;BME280;50945;44.472;-123.352;2022-08-06T06:57:51;100316.94;;;18.02;55.14
64551;BME280;50945;44.472;-123.352;2022-08-06T07:00:19;100317.78;;;18.02;55.27
64551;BME280;50945;44.472;-123.352;2022-08-06T07:02:47;100314.88;;;17.97;55.33
64551;BME280;50945;44.472;-123.352;2022-08-06T07:05:15;100322.31;;;17.97;55.44
64551;BME280;50945;44.472;-123.352;2022-08-06T07:07:44;100318.09;;;17.94;55.52
64551;BME280;50945;44.472;-123.352;2022-08-06T07:10:12;100311.97;;;17.92;55.30
64551;BME280;50945;44.472;-123.352;2022-08-06T07:12:42;100313.28;;;17.90;55.75
64551;BME280;50945;44.472;-123.352;2022-08-06T07:15:11;100334.56;;;17.89;55.45
64551;BME280;50945;44.472;-123.352;2022-08-06T07:17:38;100331.81;;;17.89;55.69
64551;BME280;50945;44.472;-123.352;2022-08-06T07:20:07;100335.63;;;17.88;55.72
64551;BME280;50945;44.472;-123.352;2022-08-06T07:22:35;100332.63;;;17.90;55.80
64551;BME280;50945;44.472;-123.352;2022-08-06T07:25:05;100338.16;;;17.90;55.79
64551;BME280;50945;44.472;-123.352;2022-08-06T07:27:45;100324.56;;;17.88;56.44
64551;BME280;50945;44.472;-123.352;2022-08-06T07:30:14;100339.00;;;17.90;55.80
64551;BME280;50945;44.472;-123.352;2022-08-06T07:32:43;100341.78;;;17.90;55.87
64551;BME280;50945;44.472;-123.352;2022-08-06T07:35:11;100342.00;;;17.89;55.81
64551;BME280;50945;44.472;-123.352;2022-08-06T07:37:40;100341.78;;;17.90;55.70
64551;BME280;50945;44.472;-123.352;2022-08-06T07:40:10;100336.69;;;17.87;56.21
64551;BME280;50945;44.472;-123.352;2022-08-06T07:42:40;100336.97;;;17.85;56.22
64551;BME280;50945;44.472;-123.352;2022-08-06T07:45:08;100341.81;;;17.83;56.19
64551;BME280;50945;44.472;-123.352;2022-08-06T07:47:39;100350.38;;;17.82;56.25
64551;BME280;50945;44.472;-123.352;2022-08-06T07:50:08;100343.75;;;17.83;56.18
64551;BME280;50945;44.472;-123.352;2022-08-06T07:52:36;100345.44;;;17.84;56.08
64551;BME280;50945;44.472;-123.352;2022-08-06T07:55:04;100336.97;;;17.85;56.17
64551;BME280;50945;44.472;-123.352;2022-08-06T07:57:31;100341.59;;;17.85;56.46
64551;BME280;50945;44.472;-123.352;2022-08-06T07:59:58;100329.94;;;17.83;56.25
64551;BME280;50945;44.472;-123.352;2022-08-06T08:02:25;100338.44;;;17.81;56.53
64551;BME280;50945;44.472;-123.352;2022-08-06T08:04:52;100338.44;;;17.81;56.87
64551;BME280;50945;44.472;-123.352;2022-08-06T08:07:37;100343.16;;;17.81;56.53
64551;BME280;50945;44.472;-123.352;2022-08-06T08:10:04;100337.63;;;17.81;56.58
64551;BME280;50945;44.472;-123.352;2022-08-06T08:12:32;100340.59;;;17.79;56.54
64551;BME280;50945;44.472;-123.352;2022-08-06T08:14:59;100346.38;;;17.78;56.36
64551;BME280;50945;44.472;-123.352;2022-08-06T08:17:26;100351.91;;;17.78;56.71
64551;BME280;50945;44.472;-123.352;2022-08-06T08:19:52;100357.44;;;17.78;56.70
64551;BME280;50945;44.472;-123.352;2022-08-06T08:22:20;100348.97;;;17.73;56.46
64551;BME280;50945;44.472;-123.352;2022-08-06T08:24:47;100355.00;;;17.70;56.43
64551;BME280;50945;44.472;-123.352;2022-08-06T08:27:14;100350.75;;;17.67;56.95
64551;BME280;50945;44.472;-123.352;2022-08-06T08:29:41;100350.75;;;17.67;56.65
64551;BME280;50945;44.472;-123.352;2022-08-06T08:32:09;100359.28;;;17.65;57.05
64551;BME280;50945;44.472;-123.352;2022-08-06T08:34:35;100353.38;;;17.62;57.08
64551;BME280;50945;44.472;-123.352;2022-08-06T08:37:02;100350.44;;;17.57;56.85
64551;BME280;50945;44.472;-123.352;2022-08-06T08:39:29;100357.91;;;17.56;57.19
64551;BME280;50945;44.472;-123.352;2022-08-06T08:42:03;100360.06;;;17.54;56.75
64551;BME280;50945;44.472;-123.352;2022-08-06T08:44:33;100357.75;;;17.51;56.78
64551;BME280;50945;44.472;-123.352;2022-08-06T08:47:01;100357.97;;;17.49;56.79
64551;BME280;50945;44.472;-123.352;2022-08-06T08:50:02;100357.59;;;17.46;58.25
64551;BME280;50945;44.472;-123.352;2022-08-06T08:52:32;100365.88;;;17.46;57.01
64551;BME280;50945;44.472;-123.352;2022-08-06T08:55:02;100361.91;;;17.42;56.92
64551;BME280;50945;44.472;-123.352;2022-08-06T08:57:29;100365.72;;;17.41;57.16
64551;BME280;50945;44.472;-123.352;2022-08-06T08:59:56;100364.28;;;17.38;57.24
64551;BME280;50945;44.472;-123.352;2022-08-06T09:02:23;100366.22;;;17.38;57.63
64551;BME280;50945;44.472;-123.352;2022-08-06T09:04:52;100361.13;;;17.35;57.48
64551;BME280;50945;44.472;-123.352;2022-08-06T09:07:20;100369.41;;;17.35;57.55
64551;BME280;50945;44.472;-123.352;2022-08-06T09:09:46;100366.88;;;17.33;57.18
64551;BME280;50945;44.472;-123.352;2022-08-06T09:12:13;100366.50;;;17.29;57.10
64551;BME280;50945;44.472;-123.352;2022-08-06T09:14:39;100366.34;;;17.24;57.77
64551;BME280;50945;44.472;-123.352;2022-08-06T09:17:09;100364.88;;;17.22;57.55
64551;BME280;50945;44.472;-123.352;2022-08-06T09:19:35;100376.00;;;17.15;57.62
64551;BME280;50945;44.472;-123.352;2022-08-06T09:22:02;100376.50;;;17.05;61.16
64551;BME280;50945;44.472;-123.352;2022-08-06T09:24:28;100377.59;;;17.04;57.84
64551;BME280;50945;44.472;-123.352;2022-08-06T09:27:15;100376.09;;;17.02;59.07
64551;BME280;50945;44.472;-123.352;2022-08-06T09:29:56;100381.03;;;17.00;58.20
64551;BME280;50945;44.472;-123.352;2022-08-06T09:32:42;100373.81;;;16.99;59.71
64551;BME280;50945;44.472;-123.352;2022-08-06T09:35:23;100366.81;;;16.96;58.94
64551;BME280;50945;44.472;-123.352;2022-08-06T09:38:00;100371.94;;;16.92;58.22
64551;BME280;50945;44.472;-123.352;2022-08-06T09:40:27;100367.75;;;16.90;58.01
64551;BME280;50945;44.472;-123.352;2022-08-06T09:42:53;100377.09;;;16.82;61.25
64551;BME280;50945;44.472;-123.352;2022-08-06T09:45:21;100371.41;;;16.84;58.37
64551;BME280;50945;44.472;-123.352;2022-08-06T09:47:59;100374.81;;;16.79;58.81
64551;BME280;50945;44.472;-123.352;2022-08-06T09:50:42;100374.25;;;16.70;59.15
64551;BME280;50945;44.472;-123.352;2022-08-06T09:53:10;100374.91;;;16.66;58.86
64551;BME280;50945;44.472;-123.352;2022-08-06T09:55:37;100375.34;;;16.63;58.93
64551;BME280;50945;44.472;-123.352;2022-08-06T09:58:03;100377.50;;;16.61;58.44
64551;BME280;50945;44.472;-123.352;2022-08-06T10:00:32;100378.38;;;16.61;58.30
64551;BME280;50945;44.472;-123.352;2022-08-06T10:03:05;100380.47;;;16.59;58.93
64551;BME280;50945;44.472;-123.352;2022-08-06T10:05:32;100378.81;;;16.58;58.79
64551;BME280;50945;44.472;-123.352;2022-08-06T10:08:08;100378.63;;;16.53;59.04
64551;BME280;50945;44.472;-123.352;2022-08-06T10:10:53;100373.31;;;16.51;59.96
64551;BME280;50945;44.472;-123.352;2022-08-06T10:13:24;100384.59;;;16.50;58.72
64551;BME280;50945;44.472;-123.352;2022-08-06T10:15:57;100381.03;;;16.43;58.61
64551;BME280;50945;44.472;-123.352;2022-08-06T10:18:44;100382.16;;;16.35;60.52
64551;BME280;50945;44.472;-123.352;2022-08-06T10:21:17;100379.22;;;16.30;59.18
64551;BME280;50945;44.472;-123.352;2022-08-06T10:23:46;100376.66;;;16.28;59.36
64551;BME280;50945;44.472;-123.352;2022-08-06T10:26:16;100371.41;;;16.20;59.97
64551;BME280;50945;44.472;-123.352;2022-08-06T10:28:46;100389.75;;;16.08;60.28
64551;BME280;50945;44.472;-123.352;2022-08-06T10:31:13;100388.50;;;15.97;60.41
64551;BME280;50945;44.472;-123.352;2022-08-06T10:34:18;100387.94;;;15.88;63.31
64551;BME280;50945;44.472;-123.352;2022-08-06T10:36:55;100399.16;;;15.87;60.52
64551;BME280;50945;44.472;-123.352;2022-08-06T10:39:28;100393.66;;;15.87;60.48
64551;BME280;50945;44.472;-123.352;2022-08-06T10:41:55;100390.03;;;15.86;60.48
64551;BME280;50945;44.472;-123.352;2022-08-06T10:44:22;100390.50;;;15.83;60.14
64551;BME280;50945;44.472;-123.352;2022-08-06T10:46:50;100393.69;;;15.80;60.18
64551;BME280;50945;44.472;-123.352;2022-08-06T10:49:19;100396.25;;;15.75;60.33
64551;BME280;50945;44.472;-123.352;2022-08-06T10:51:48;100393.88;;;15.72;60.95
64551;BME280;50945;44.472;-123.352;2022-08-06T10:54:16;100394.13;;;15.64;60.82
64551;BME280;50945;44.472;-123.352;2022-08-06T10:56:42;100401.38;;;15.58;60.45
64551;BME280;50945;44.472;-123.352;2022-08-06T10:59:12;100405.59;;;15.54;61.08
64551;BME280;50945;44.472;-123.352;2022-08-06T11:07:13;100402.22;;;15.52;60.51
64551;BME280;50945;44.472;-123.352;2022-08-06T11:15:27;100401.59;;;15.43;60.96
64551;BME280;50945;44.472;-123.352;2022-08-06T11:18:07;100397.59;;;15.39;61.22
64551;BME280;50945;44.472;-123.352;2022-08-06T11:20:34;100401.19;;;15.39;60.99
64551;BME280;50945;44.472;-123.352;2022-08-06T11:25:46;100393.81;;;15.33;61.66
64551;BME280;50945;44.472;-123.352;2022-08-06T11:28:13;100389.97;;;15.28;61.43
64551;BME280;50945;44.472;-123.352;2022-08-06T11:33:15;100390.00;;;15.21;61.30
64551;BME280;50945;44.472;-123.352;2022-08-06T11:35:43;100381.13;;;15.19;61.64
64551;BME280;50945;44.472;-123.352;2022-08-06T11:38:13;100387.69;;;15.18;61.90
64551;BME280;50945;44.472;-123.352;2022-08-06T11:40:58;100394.47;;;15.15;63.97
64551;BME280;50945;44.472;-123.352;2022-08-06T11:46:27;100380.50;;;15.10;62.29
64551;BME280;50945;44.472;-123.352;2022-08-06T11:54:31;100387.69;;;14.85;62.72
64551;BME280;50945;44.472;-123.352;2022-08-06T12:01:59;100376.28;;;14.74;62.96
64551;BME280;50945;44.472;-123.352;2022-08-06T12:07:19;100373.94;;;14.64;64.53
64551;BME280;50945;44.472;-123.352;2022-08-06T12:20:35;100380.44;;;14.37;64.66
64551;BME280;50945;44.472;-123.352;2022-08-06T12:23:08;100380.66;;;14.29;64.40
64551;BME280;50945;44.472;-123.352;2022-08-06T12:25:42;100387.19;;;14.27;64.97
64551;BME280;50945;44.472;-123.352;2022-08-06T12:28:11;100391.22;;;14.25;64.20
64551;BME280;50945;44.472;-123.352;2022-08-06T12:30:48;100392.28;;;14.24;65.67
64551;BME280;50945;44.472;-123.352;2022-08-06T12:33:16;100398.16;;;14.21;64.03
64551;BME280;50945;44.472;-123.352;2022-08-06T12:35:52;100395.88;;;14.18;64.75
64551;BME280;50945;44.472;-123.352;2022-08-06T12:38:24;100393.53;;;14.15;64.16
64551;BME280;50945;44.472;-123.352;2022-08-06T12:41:08;100392.00;;;14.12;64.26
64551;BME280;50945;44.472;-123.352;2022-08-06T12:43:35;100393.50;;;14.08;64.96
64551;BME280;50945;44.472;-123.352;2022-08-06T12:46:07;100406.16;;;14.02;65.19
64551;BME280;50945;44.472;-123.352;2022-08-06T12:48:35;100400.22;;;13.99;64.85
64551;BME280;50945;44.472;-123.352;2022-08-06T12:51:07;100408.69;;;13.97;65.07
64551;BME280;50945;44.472;-123.352;2022-08-06T12:53:38;100406.13;;;13.96;65.22
64551;BME280;50945;44.472;-123.352;2022-08-06T12:56:05;100415.00;;;13.91;65.30
64551;BME280;50945;44.472;-123.352;2022-08-06T12:58:36;100408.00;;;13.88;65.04
64551;BME280;50945;44.472;-123.352;2022-08-06T13:01:05;100416.47;;;13.87;65.10
64551;BME280;50945;44.472;-123.352;2022-08-06T13:03:35;100411.41;;;13.84;65.21
64551;BME280;50945;44.472;-123.352;2022-08-06T13:06:04;100411.34;;;13.77;65.35
64551;BME280;50945;44.472;-123.352;2022-08-06T13:08:32;100411.97;;;13.73;65.59
64551;BME280;50945;44.472;-123.352;2022-08-06T13:10:59;100421.28;;;13.72;65.37
64551;BME280;50945;44.472;-123.352;2022-08-06T13:13:39;100419.75;;;13.69;66.46
64551;BME280;50945;44.472;-123.352;2022-08-06T13:16:06;100418.47;;;13.65;65.46
64551;BME280;50945;44.472;-123.352;2022-08-06T13:18:34;100420.78;;;13.61;65.61
64551;BME280;50945;44.472;-123.352;2022-08-06T13:21:00;100421.59;;;13.55;69.75
64551;BME280;50945;44.472;-123.352;2022-08-06T13:25:55;100419.22;;;13.45;65.45
64551;BME280;50945;44.472;-123.352;2022-08-06T13:28:23;100423.19;;;13.43;65.60
64551;BME280;50945;44.472;-123.352;2022-08-06T13:30:50;100430.41;;;13.44;65.66
64551;BME280;50945;44.472;-123.352;2022-08-06T13:33:21;100431.44;;;13.43;65.59
64551;BME280;50945;44.472;-123.352;2022-08-06T13:35:52;100439.09;;;13.47;65.96
64551;BME280;50945;44.472;-123.352;2022-08-06T13:38:31;100428.53;;;13.51;67.08
64551;BME280;50945;44.472;-123.352;2022-08-06T13:40:58;100433.00;;;13.52;65.94
64551;BME280;50945;44.472;-123.352;2022-08-06T13:43:39;100437.22;;;13.55;66.63
64551;BME280;50945;44.472;-123.352;2022-08-06T13:46:17;100431.53;;;13.56;66.49
64551;BME280;50945;44.472;-123.352;2022-08-06T13:48:48;100429.22;;;13.60;65.84
64551;BME280;50945;44.472;-123.352;2022-08-06T13:51:16;100436.19;;;13.62;65.70
64551;BME280;50945;44.472;-123.352;2022-08-06T13:53:43;100434.56;;;13.68;65.96
64551;BME280;50945;44.472;-123.352;2022-08-06T13:56:09;100444.72;;;13.74;65.88
64551;BME280;50945;44.472;-123.352;2022-08-06T13:58:35;100444.13;;;13.79;65.97